sensor_id;sensor_type;location;lat;lon;timestamp;pressure;altitude;pressure_sealevel;temperature;humidity
41706;BME280;27385;51.096;17.190;2023-02-12T00:01:21;101761.26;;;5.21;100.00
41706;BME280;27385;51.096;17.190;2023-02-12T00:03:52;101759.27;;;5.20;100.00
41706;BME280;27385;51.096;17.190;2023-02-12T00:06:24;101758.58;;;5.20;100.00
41706;BME280;27385;51.096;17.190;2023-02-12T00:08:56;101761.03;;;5.20;100.00
41706;BME280;27385;51.096;17.190;2023-02-12T00:11:30;101763.33;;;5.20;100.00
41706;BME280;27385;51.096;17.190;2023-02-12T00:14:02;101761.27;;;5.21;100.00
41706;BME280;27385;51.096;17.190;2023-02-12T00:16:34;101764.27;;;5.20;100.00
41706;BME280;27385;51.096;17.190;2023-02-12T00:19:06;101770.13;;;5.20;100.00
41706;BME280;27385;51.096;17.190;2023-02-12T00:21:37;101775.04;;;5.20;100.00
41706;BME280;27385;51.096;17.190;2023-02-12T00:24:08;101769.41;;;5.20;100.00
41706;BME280;27385;51.096;17.190;2023-02-12T00:26:40;101762.84;;;5.20;100.00
41706;BME280;27385;51.096;17.190;2023-02-12T00:29:12;101769.16;;;5.20;100.00
41706;BME280;27385;51.096;17.190;2023-02-12T00:31:43;101770.67;;;5.21;100.00
41706;BME280;27385;51.096;17.190;2023-02-12T00:34:14;101769.81;;;5.21;100.00
41706;BME280;27385;51.096;17.190;2023-02-12T00:36:45;101768.14;;;5.22;100.00
41706;BME280;27385;51.096;17.190;2023-02-12T00:39:16;101762.84;;;5.22;100.00
41706;BME280;27385;51.096;17.190;2023-02-12T00:41:47;101767.82;;;5.23;100.00
41706;BME280;27385;51.096;17.190;2023-02-12T00:44:18;101769.95;;;5.23;100.00
41706;BME280;27385;51.096;17.190;2023-02-12T00:46:49;101769.62;;;5.24;100.00
41706;BME280;27385;51.096;17.190;2023-02-12T00:49:21;101771.20;;;5.25;100.00
41706;BME280;27385;51.096;17.190;2023-02-12T00:51:52;101772.94;;;5.25;100.00
41706;BME280;27385;51.096;17.190;2023-02-12T00:54:23;101777.60;;;5.26;100.00
41706;BME280;27385;51.096;17.190;2023-02-12T00:56:55;101779.19;;;5.27;100.00
41706;BME280;27385;51.096;17.190;2023-02-12T00:59:28;101783.30;;;5.26;100.00
41706;BME280;27385;51.096;17.190;2023-02-12T01:01:59;101785.02;;;5.28;100.00
41706;BME280;27385;51.096;17.190;2023-02-12T01:04:31;101785.34;;;5.28;100.00
41706;BME280;27385;51.096;17.190;2023-02-12T01:07:02;101790.08;;;5.28;100.00
41706;BME280;27385;51.096;17.190;2023-02-12T01:09:33;101802.34;;;5.29;100.00
41706;BME280;27385;51.096;17.190;2023-02-12T01:12:06;101820.62;;;5.29;100.00
41706;BME280;27385;51.096;17.190;2023-02-12T01:14:37;101819.91;;;5.28;100.00
41706;BME280;27385;51.096;17.190;2023-02-12T01:17:10;101815.39;;;5.28;100.00
41706;BME280;27385;51.096;17.190;2023-02-12T01:19:41;101818.33;;;5.28;100.00
41706;BME280;27385;51.096;17.190;2023-02-12T01:22:12;101824.20;;;5.26;100.00
41706;BME280;27385;51.096;17.190;2023-02-12T01:24:43;101832.52;;;5.24;100.00
41706;BME280;27385;51.096;17.190;2023-02-12T01:27:15;101836.02;;;5.22;100.00
41706;BME280;27385;51.096;17.190;2023-02-12T01:29:47;101836.97;;;5.21;100.00
41706;BME280;27385;51.096;17.190;2023-02-12T01:32:18;101833.34;;;5.18;100.00
41706;BME280;27385;51.096;17.190;2023-02-12T01:34:49;101837.95;;;5.13;100.00
41706;BME280;27385;51.096;17.190;2023-02-12T01:37:20;101844.05;;;5.10;100.00
41706;BME280;27385;51.096;17.190;2023-02-12T01:39:51;101848.66;;;5.08;100.00
41706;BME280;27385;51.096;17.190;2023-02-12T01:42:23;101848.67;;;5.07;100.00
41706;BME280;27385;51.096;17.190;2023-02-12T01:48:24;101852.64;;;5.03;100.00
41706;BME280;27385;51.096;17.190;2023-02-12T01:50:57;101856.20;;;5.01;100.00
41706;BME280;27385;51.096;17.190;2023-02-12T01:53:32;101855.50;;;5.00;100.00
41706;BME280;27385;51.096;17.190;2023-02-12T01:56:07;101857.40;;;4.99;100.00
41706;BME280;27385;51.096;17.190;2023-02-12T01:58:41;101858.75;;;4.99;100.00
41706;BME280;27385;51.096;17.190;2023-02-12T02:01:16;101860.40;;;5.00;100.00
41706;BME280;27385;51.096;17.190;2023-02-12T02:03:51;101861.11;;;5.00;100.00
41706;BME280;27385;51.096;17.190;2023-02-12T02:06:26;101863.48;;;5.01;100.00
41706;BME280;27385;51.096;17.190;2023-02-12T02:08:58;101864.27;;;5.01;100.00
41706;BME280;27385;51.096;17.190;2023-02-12T02:11:29;101868.61;;;5.02;100.00
41706;BME280;27385;51.096;17.190;2023-02-12T02:14:18;101869.33;;;5.02;100.00
41706;BME280;27385;51.096;17.190;2023-02-12T02:17:17;101868.45;;;5.03;100.00
41706;BME280;27385;51.096;17.190;2023-02-12T02:23:07;101869.71;;;5.03;100.00
41706;BME280;27385;51.096;17.190;2023-02-12T02:26:00;101873.05;;;5.02;100.00
41706;BME280;27385;51.096;17.190;2023-02-12T02:28:54;101880.40;;;5.01;100.00
41706;BME280;27385;51.096;17.190;2023-02-12T02:31:31;101886.42;;;4.99;100.00
41706;BME280;27385;51.096;17.190;2023-02-12T02:34:10;101886.82;;;4.96;100.00
41706;BME280;27385;51.096;17.190;2023-02-12T02:36:52;101889.75;;;4.93;100.00
41706;BME280;27385;51.096;17.190;2023-02-12T02:39:32;101892.22;;;4.91;100.00
41706;BME280;27385;51.096;17.190;2023-02-12T02:42:12;101896.81;;;4.89;100.00
41706;BME280;27385;51.096;17.190;2023-02-12T02:44:49;101901.72;;;4.87;100.00
41706;BME280;27385;51.096;17.190;2023-02-12T02:47:28;101901.00;;;4.86;100.00
41706;BME280;27385;51.096;17.190;2023-02-12T02:50:07;101906.23;;;4.86;100.00
41706;BME280;27385;51.096;17.190;2023-02-12T02:52:40;101907.03;;;4.85;100.00
41706;BME280;27385;51.096;17.190;2023-02-12T02:55:15;101917.30;;;4.85;100.00
41706;BME280;27385;51.096;17.190;2023-02-12T02:57:50;101912.55;;;4.85;100.00
41706;BME280;27385;51.096;17.190;2023-02-12T03:00:28;101913.91;;;4.84;100.00
41706;BME280;27385;51.096;17.190;2023-02-12T03:03:12;101915.64;;;4.83;100.00
41706;BME280;27385;51.096;17.190;2023-02-12T03:05:49;101920.88;;;4.81;100.00
41706;BME280;27385;51.096;17.190;2023-02-12T03:08:26;101920.55;;;4.80;100.00
41706;BME280;27385;51.096;17.190;2023-02-12T03:11:02;101928.22;;;4.81;100.00
41706;BME280;27385;51.096;17.190;2023-02-12T03:13:39;101937.48;;;4.81;100.00
41706;BME280;27385;51.096;17.190;2023-02-12T03:16:16;101938.98;;;4.82;100.00
41706;BME280;27385;51.096;17.190;2023-02-12T03:18:55;101948.55;;;4.82;100.00
41706;BME280;27385;51.096;17.190;2023-02-12T03:21:32;101942.92;;;4.81;100.00
41706;BME280;27385;51.096;17.190;2023-02-12T03:24:09;101946.56;;;4.81;100.00
41706;BME280;27385;51.096;17.190;2023-02-12T03:26:45;101950.77;;;4.80;100.00
41706;BME280;27385;51.096;17.190;2023-02-12T03:29:17;101948.31;;;4.79;100.00
41706;BME280;27385;51.096;17.190;2023-02-12T03:32:00;101952.09;;;4.79;100.00
41706;BME280;27385;51.096;17.190;2023-02-12T03:34:40;101954.70;;;4.78;100.00
41706;BME280;27385;51.096;17.190;2023-02-12T03:37:20;101952.49;;;4.77;100.00
41706;BME280;27385;51.096;17.190;2023-02-12T03:39:56;101962.23;;;4.75;100.00
41706;BME280;27385;51.096;17.190;2023-02-12T03:42:37;101970.45;;;4.74;100.00
41706;BME280;27385;51.096;17.190;2023-02-12T03:45:24;101967.77;;;4.73;100.00
41706;BME280;27385;51.096;17.190;2023-02-12T03:48:05;101975.43;;;4.73;100.00
41706;BME280;27385;51.096;17.190;2023-02-12T03:50:43;101985.39;;;4.74;100.00
41706;BME280;27385;51.096;17.190;2023-02-12T03:53:17;101989.09;;;4.74;100.00
41706;BME280;27385;51.096;17.190;2023-02-12T03:55:53;101986.90;;;4.73;100.00
41706;BME280;27385;51.096;17.190;2023-02-12T03:58:28;101988.31;;;4.73;100.00
41706;BME280;27385;51.096;17.190;2023-02-12T04:01:03;101991.09;;;4.73;100.00
41706;BME280;27385;51.096;17.190;2023-02-12T04:03:34;101998.35;;;4.73;100.00
41706;BME280;27385;51.096;17.190;2023-02-12T04:06:20;101999.30;;;4.73;100.00
41706;BME280;27385;51.096;17.190;2023-02-12T04:08:51;102003.89;;;4.73;100.00
41706;BME280;27385;51.096;17.190;2023-02-12T04:11:29;102006.56;;;4.73;100.00
41706;BME280;27385;51.096;17.190;2023-02-12T04:14:12;102006.89;;;4.72;100.00
41706;BME280;27385;51.096;17.190;2023-02-12T04:16:49;102004.52;;;4.72;100.00
41706;BME280;27385;51.096;17.190;2023-02-12T04:19:42;102007.05;;;4.72;100.00
41706;BME280;27385;51.096;17.190;2023-02-12T04:22:28;102013.45;;;4.73;100.00
41706;BME280;27385;51.096;17.190;2023-02-12T04:25:18;102013.20;;;4.74;100.00
41706;BME280;27385;51.096;17.190;2023-02-12T04:27:58;102017.00;;;4.74;100.00
41706;BME280;27385;51.096;17.190;2023-02-12T04:30:36;102021.67;;;4.73;100.00
41706;BME280;27385;51.096;17.190;2023-02-12T04:33:13;102021.98;;;4.73;100.00
41706;BME280;27385;51.096;17.190;2023-02-12T04:35:49;102028.63;;;4.73;100.00
41706;BME280;27385;51.096;17.190;2023-02-12T04:38:24;102029.19;;;4.73;100.00
41706;BME280;27385;51.096;17.190;2023-02-12T04:40:58;102032.97;;;4.73;100.00
41706;BME280;27385;51.096;17.190;2023-02-12T04:43:32;102033.61;;;4.73;100.00
41706;BME280;27385;51.096;17.190;2023-02-12T04:46:06;102041.42;;;4.72;100.00
41706;BME280;27385;51.096;17.190;2023-02-12T04:48:51;102045.79;;;4.71;100.00
41706;BME280;27385;51.096;17.190;2023-02-12T04:51:23;102050.84;;;4.69;100.00
41706;BME280;27385;51.096;17.190;2023-02-12T04:53:54;102051.40;;;4.68;100.00
41706;BME280;27385;51.096;17.190;2023-02-12T04:56:26;102053.29;;;4.68;100.00
41706;BME280;27385;51.096;17.190;2023-02-12T04:58:57;102056.45;;;4.68;100.00
41706;BME280;27385;51.096;17.190;2023-02-12T05:01:28;102056.05;;;4.68;100.00
41706;BME280;27385;51.096;17.190;2023-02-12T05:03:59;102053.53;;;4.66;100.00
41706;BME280;27385;51.096;17.190;2023-02-12T05:06:30;102059.70;;;4.64;100.00
41706;BME280;27385;51.096;17.190;2023-02-12T05:09:04;102067.04;;;4.64;100.00
41706;BME280;27385;51.096;17.190;2023-02-12T05:11:35;102070.84;;;4.64;100.00
41706;BME280;27385;51.096;17.190;2023-02-12T05:14:06;102070.99;;;4.63;100.00
41706;BME280;27385;51.096;17.190;2023-02-12T05:16:37;102071.40;;;4.63;100.00
41706;BME280;27385;51.096;17.190;2023-02-12T05:19:10;102072.89;;;4.62;100.00
41706;BME280;27385;51.096;17.190;2023-02-12T05:21:41;102075.83;;;4.62;100.00
41706;BME280;27385;51.096;17.190;2023-02-12T05:24:12;102079.30;;;4.61;100.00
41706;BME280;27385;51.096;17.190;2023-02-12T05:26:43;102078.89;;;4.62;100.00
41706;BME280;27385;51.096;17.190;2023-02-12T05:29:15;102083.64;;;4.61;100.00
41706;BME280;27385;51.096;17.190;2023-02-12T05:31:46;102083.34;;;4.61;100.00
41706;BME280;27385;51.096;17.190;2023-02-12T05:34:17;102087.36;;;4.61;100.00
41706;BME280;27385;51.096;17.190;2023-02-12T05:36:48;102090.68;;;4.61;100.00
41706;BME280;27385;51.096;17.190;2023-02-12T05:39:19;102091.39;;;4.61;100.00
41706;BME280;27385;51.096;17.190;2023-02-12T05:41:51;102094.63;;;4.60;100.00
41706;BME280;27385;51.096;17.190;2023-02-12T05:44:22;102096.98;;;4.59;100.00
41706;BME280;27385;51.096;17.190;2023-02-12T05:46:54;102101.50;;;4.59;100.00
41706;BME280;27385;51.096;17.190;2023-02-12T05:49:25;102105.36;;;4.59;100.00
41706;BME280;27385;51.096;17.190;2023-02-12T05:51:56;102114.38;;;4.60;100.00
41706;BME280;27385;51.096;17.190;2023-02-12T05:54:28;102117.16;;;4.61;100.00
41706;BME280;27385;51.096;17.190;2023-02-12T05:56:59;102119.61;;;4.61;100.00
41706;BME280;27385;51.096;17.190;2023-02-12T05:59:30;102126.72;;;4.62;100.00
41706;BME280;27385;51.096;17.190;2023-02-12T06:02:02;102134.55;;;4.63;100.00
41706;BME280;27385;51.096;17.190;2023-02-12T06:04:33;102135.33;;;4.63;100.00
41706;BME280;27385;51.096;17.190;2023-02-12T06:07:04;102145.30;;;4.65;100.00
41706;BME280;27385;51.096;17.190;2023-02-12T06:09:37;102152.10;;;4.66;100.00
41706;BME280;27385;51.096;17.190;2023-02-12T06:12:08;102155.81;;;4.68;100.00
41706;BME280;27385;51.096;17.190;2023-02-12T06:14:41;102161.58;;;4.69;100.00
41706;BME280;27385;51.096;17.190;2023-02-12T06:17:12;102164.19;;;4.71;100.00
41706;BME280;27385;51.096;17.190;2023-02-12T06:19:44;102165.46;;;4.73;100.00
41706;BME280;27385;51.096;17.190;2023-02-12T06:22:15;102170.45;;;4.74;100.00
41706;BME280;27385;51.096;17.190;2023-02-12T06:24:46;102176.45;;;4.77;100.00
41706;BME280;27385;51.096;17.190;2023-02-12T06:27:17;102183.17;;;4.78;100.00
41706;BME280;27385;51.096;17.190;2023-02-12T06:29:48;102185.65;;;4.80;100.00
41706;BME280;27385;51.096;17.190;2023-02-12T06:32:19;102187.86;;;4.82;100.00
41706;BME280;27385;51.096;17.190;2023-02-12T06:34:50;102194.19;;;4.84;100.00
41706;BME280;27385;51.096;17.190;2023-02-12T06:37:22;102194.73;;;4.85;100.00
41706;BME280;27385;51.096;17.190;2023-02-12T06:39:53;102203.44;;;4.85;100.00
41706;BME280;27385;51.096;17.190;2023-02-12T06:42:24;102206.13;;;4.87;100.00
41706;BME280;27385;51.096;17.190;2023-02-12T06:44:55;102205.66;;;4.89;100.00
41706;BME280;27385;51.096;17.190;2023-02-12T06:47:27;102208.34;;;4.91;100.00
41706;BME280;27385;51.096;17.190;2023-02-12T06:49:58;102210.40;;;4.92;100.00
41706;BME280;27385;51.096;17.190;2023-02-12T06:52:30;102211.60;;;4.93;100.00
41706;BME280;27385;51.096;17.190;2023-02-12T06:55:01;102214.60;;;4.92;100.00
41706;BME280;27385;51.096;17.190;2023-02-12T06:57:31;102220.84;;;4.92;100.00
41706;BME280;27385;51.096;17.190;2023-02-12T07:00:03;102221.62;;;4.91;100.00
41706;BME280;27385;51.096;17.190;2023-02-12T07:02:35;102221.30;;;4.88;100.00
41706;BME280;27385;51.096;17.190;2023-02-12T07:05:07;102219.25;;;4.87;100.00
41706;BME280;27385;51.096;17.190;2023-02-12T07:07:39;102227.88;;;4.88;100.00
41706;BME280;27385;51.096;17.190;2023-02-12T07:10:11;102236.80;;;4.87;100.00
41706;BME280;27385;51.096;17.190;2023-02-12T07:12:45;102236.41;;;4.88;100.00
41706;BME280;27385;51.096;17.190;2023-02-12T07:15:17;102240.61;;;4.91;100.00
41706;BME280;27385;51.096;17.190;2023-02-12T07:17:48;102244.64;;;4.93;100.00
41706;BME280;27385;51.096;17.190;2023-02-12T07:20:21;102252.00;;;4.93;100.00
41706;BME280;27385;51.096;17.190;2023-02-12T07:22:51;102256.11;;;4.93;100.00
41706;BME280;27385;51.096;17.190;2023-02-12T07:25:22;102257.45;;;4.93;100.00
41706;BME280;27385;51.096;17.190;2023-02-12T07:27:53;102259.52;;;4.95;100.00
41706;BME280;27385;51.096;17.190;2023-02-12T07:30:25;102263.70;;;4.96;100.00
41706;BME280;27385;51.096;17.190;2023-02-12T07:32:56;102264.97;;;4.97;100.00
41706;BME280;27385;51.096;17.190;2023-02-12T07:35:27;102265.70;;;4.98;100.00
41706;BME280;27385;51.096;17.190;2023-02-12T07:37:58;102265.22;;;4.99;100.00
41706;BME280;27385;51.096;17.190;2023-02-12T07:40:29;102266.17;;;5.02;100.00
41706;BME280;27385;51.096;17.190;2023-02-12T07:43:00;102264.20;;;5.03;100.00
41706;BME280;27385;51.096;17.190;2023-02-12T07:45:31;102268.55;;;5.04;100.00
41706;BME280;27385;51.096;17.190;2023-02-12T07:48:03;102269.90;;;5.06;100.00
41706;BME280;27385;51.096;17.190;2023-02-12T07:50:34;102272.91;;;5.06;100.00
41706;BME280;27385;51.096;17.190;2023-02-12T07:53:05;102272.83;;;5.05;100.00
41706;BME280;27385;51.096;17.190;2023-02-12T07:55:36;102270.92;;;5.05;100.00
41706;BME280;27385;51.096;17.190;2023-02-12T07:58:07;102277.34;;;5.07;100.00
41706;BME280;27385;51.096;17.190;2023-02-12T08:00:39;102283.90;;;5.08;100.00
41706;BME280;27385;51.096;17.190;2023-02-12T08:03:10;102287.86;;;5.09;100.00
41706;BME280;27385;51.096;17.190;2023-02-12T08:05:41;102289.70;;;5.10;100.00
41706;BME280;27385;51.096;17.190;2023-02-12T08:08:12;102295.53;;;5.12;100.00
41706;BME280;27385;51.096;17.190;2023-02-12T08:10:43;102290.64;;;5.14;100.00
41706;BME280;27385;51.096;17.190;2023-02-12T08:13:14;102292.88;;;5.17;100.00
41706;BME280;27385;51.096;17.190;2023-02-12T08:15:45;102294.69;;;5.19;100.00
41706;BME280;27385;51.096;17.190;2023-02-12T08:18:16;102296.35;;;5.19;100.00
41706;BME280;27385;51.096;17.190;2023-02-12T08:20:48;102300.86;;;5.21;100.00
41706;BME280;27385;51.096;17.190;2023-02-12T08:23:19;102303.64;;;5.22;100.00
41706;BME280;27385;51.096;17.190;2023-02-12T08:25:50;102298.27;;;5.23;100.00
41706;BME280;27385;51.096;17.190;2023-02-12T08:28:21;102300.94;;;5.24;100.00
41706;BME280;27385;51.096;17.190;2023-02-12T08:30:52;102304.12;;;5.25;100.00
41706;BME280;27385;51.096;17.190;2023-02-12T08:33:29;102301.11;;;5.25;100.00
41706;BME280;27385;51.096;17.190;2023-02-12T08:36:06;102304.75;;;5.24;100.00
41706;BME280;27385;51.096;17.190;2023-02-12T08:38:38;102303.64;;;5.23;100.00
41706;BME280;27385;51.096;17.190;2023-02-12T08:41:11;102305.07;;;5.21;100.00
41706;BME280;27385;51.096;17.190;2023-02-12T08:43:43;102305.92;;;5.20;100.00
41706;BME280;27385;51.096;17.190;2023-02-12T08:46:16;102309.64;;;5.20;100.00
41706;BME280;27385;51.096;17.190;2023-02-12T08:48:50;102315.50;;;5.22;100.00
41706;BME280;27385;51.096;17.190;2023-02-12T08:51:23;102308.14;;;5.25;100.00
41706;BME280;27385;51.096;17.190;2023-02-12T08:53:57;102310.04;;;5.28;100.00
41706;BME280;27385;51.096;17.190;2023-02-12T08:56:29;102315.59;;;5.31;100.00
41706;BME280;27385;51.096;17.190;2023-02-12T08:59:02;102312.91;;;5.33;100.00
41706;BME280;27385;51.096;17.190;2023-02-12T09:01:35;102319.48;;;5.35;100.00
41706;BME280;27385;51.096;17.190;2023-02-12T09:04:09;102325.34;;;5.36;100.00
41706;BME280;27385;51.096;17.190;2023-02-12T09:06:42;102331.13;;;5.37;100.00
41706;BME280;27385;51.096;17.190;2023-02-12T09:09:14;102328.81;;;5.38;100.00
41706;BME280;27385;51.096;17.190;2023-02-12T09:11:45;102332.22;;;5.39;100.00
41706;BME280;27385;51.096;17.190;2023-02-12T09:14:17;102341.64;;;5.41;100.00
41706;BME280;27385;51.096;17.190;2023-02-12T09:16:53;102334.14;;;5.42;100.00
41706;BME280;27385;51.096;17.190;2023-02-12T09:19:26;102332.08;;;5.44;100.00
41706;BME280;27385;51.096;17.190;2023-02-12T09:21:57;102338.17;;;5.47;100.00
41706;BME280;27385;51.096;17.190;2023-02-12T09:24:29;102336.67;;;5.49;100.00
41706;BME280;27385;51.096;17.190;2023-02-12T09:27:01;102339.14;;;5.54;100.00
41706;BME280;27385;51.096;17.190;2023-02-12T09:29:32;102345.79;;;5.56;100.00
41706;BME280;27385;51.096;17.190;2023-02-12T09:32:03;102348.09;;;5.62;100.00
41706;BME280;27385;51.096;17.190;2023-02-12T09:34:36;102358.23;;;5.67;100.00
41706;BME280;27385;51.096;17.190;2023-02-12T09:37:07;102358.14;;;5.68;100.00
41706;BME280;27385;51.096;17.190;2023-02-12T09:39:39;102362.11;;;5.69;100.00
41706;BME280;27385;51.096;17.190;2023-02-12T09:42:26;102362.98;;;5.71;100.00
41706;BME280;27385;51.096;17.190;2023-02-12T09:45:09;102358.40;;;5.74;100.00
41706;BME280;27385;51.096;17.190;2023-02-12T09:47:49;102361.80;;;5.79;100.00
41706;BME280;27385;51.096;17.190;2023-02-12T09:50:41;102364.19;;;5.83;100.00
41706;BME280;27385;51.096;17.190;2023-02-12T09:53:18;102366.11;;;5.87;100.00
41706;BME280;27385;51.096;17.190;2023-02-12T09:55:51;102366.98;;;5.88;100.00
41706;BME280;27385;51.096;17.190;2023-02-12T09:58:31;102366.11;;;5.91;99.98
41706;BME280;27385;51.096;17.190;2023-02-12T10:01:10;102366.66;;;5.98;100.00
41706;BME280;27385;51.096;17.190;2023-02-12T10:03:43;102371.27;;;6.08;100.00
41706;BME280;27385;51.096;17.190;2023-02-12T10:06:18;102371.65;;;6.17;100.00
41706;BME280;27385;51.096;17.190;2023-02-12T10:09:04;102371.16;;;6.22;99.74
41706;BME280;27385;51.096;17.190;2023-02-12T10:11:58;102373.70;;;6.25;99.55
41706;BME280;27385;51.096;17.190;2023-02-12T10:14:58;102372.59;;;6.28;99.26
41706;BME280;27385;51.096;17.190;2023-02-12T10:17:39;102375.36;;;6.30;98.67
41706;BME280;27385;51.096;17.190;2023-02-12T10:20:32;102374.10;;;6.30;98.16
41706;BME280;27385;51.096;17.190;2023-02-12T10:23:20;102375.04;;;6.31;98.21
41706;BME280;27385;51.096;17.190;2023-02-12T10:25:55;102370.77;;;6.32;97.86
41706;BME280;27385;51.096;17.190;2023-02-12T10:28:30;102373.14;;;6.31;97.95
41706;BME280;27385;51.096;17.190;2023-02-12T10:31:05;102374.17;;;6.31;97.44
41706;BME280;27385;51.096;17.190;2023-02-12T10:33:40;102366.96;;;6.32;98.10
41706;BME280;27385;51.096;17.190;2023-02-12T10:36:24;102365.05;;;6.35;97.98
41706;BME280;27385;51.096;17.190;2023-02-12T10:39:04;102365.20;;;6.39;97.78
41706;BME280;27385;51.096;17.190;2023-02-12T10:41:40;102360.92;;;6.43;97.86
41706;BME280;27385;51.096;17.190;2023-02-12T10:44:13;102358.92;;;6.48;97.96
41706;BME280;27385;51.096;17.190;2023-02-12T10:46:44;102355.34;;;6.51;97.80
41706;BME280;27385;51.096;17.190;2023-02-12T10:49:17;102350.11;;;6.52;97.71
41706;BME280;27385;51.096;17.190;2023-02-12T10:52:04;102349.23;;;6.55;97.58
41706;BME280;27385;51.096;17.190;2023-02-12T10:54:41;102347.63;;;6.59;97.46
41706;BME280;27385;51.096;17.190;2023-02-12T10:57:22;102348.73;;;6.62;97.32
41706;BME280;27385;51.096;17.190;2023-02-12T10:59:55;102346.43;;;6.66;97.11
41706;BME280;27385;51.096;17.190;2023-02-12T11:02:30;102346.52;;;6.64;96.13
41706;BME280;27385;51.096;17.190;2023-02-12T11:05:24;102345.65;;;6.61;95.89
41706;BME280;27385;51.096;17.190;2023-02-12T11:07:55;102346.21;;;6.58;96.09
41706;BME280;27385;51.096;17.190;2023-02-12T11:10:32;102346.05;;;6.58;96.05
41706;BME280;27385;51.096;17.190;2023-02-12T11:13:16;102340.41;;;6.60;95.89
41706;BME280;27385;51.096;17.190;2023-02-12T11:15:52;102337.15;;;6.65;95.40
41706;BME280;27385;51.096;17.190;2023-02-12T11:18:35;102335.31;;;6.69;95.47
41706;BME280;27385;51.096;17.190;2023-02-12T11:21:08;102341.58;;;6.73;95.61
41706;BME280;27385;51.096;17.190;2023-02-12T11:23:41;102344.24;;;6.77;95.36
41706;BME280;27385;51.096;17.190;2023-02-12T11:26:27;102337.24;;;6.80;95.34
41706;BME280;27385;51.096;17.190;2023-02-12T11:29:00;102337.55;;;6.83;95.11
41706;BME280;27385;51.096;17.190;2023-02-12T11:31:33;102331.21;;;6.84;95.04
41706;BME280;27385;51.096;17.190;2023-02-12T11:34:13;102334.84;;;6.87;94.68
41706;BME280;27385;51.096;17.190;2023-02-12T11:36:47;102334.73;;;6.90;94.68
41706;BME280;27385;51.096;17.190;2023-02-12T11:39:22;102332.35;;;6.93;94.58
41706;BME280;27385;51.096;17.190;2023-02-12T11:41:55;102328.29;;;6.98;94.90
41706;BME280;27385;51.096;17.190;2023-02-12T11:44:31;102329.45;;;7.04;94.32
41706;BME280;27385;51.096;17.190;2023-02-12T11:47:06;102327.83;;;7.09;94.42
41706;BME280;27385;51.096;17.190;2023-02-12T11:49:48;102331.61;;;7.15;94.12
41706;BME280;27385;51.096;17.190;2023-02-12T11:52:23;102327.30;;;7.20;94.13
41706;BME280;27385;51.096;17.190;2023-02-12T11:54:56;102332.82;;;7.26;94.32
41706;BME280;27385;51.096;17.190;2023-02-12T11:57:42;102335.56;;;7.32;93.88
41706;BME280;27385;51.096;17.190;2023-02-12T12:00:18;102334.42;;;7.38;93.27
41706;BME280;27385;51.096;17.190;2023-02-12T12:02:57;102334.27;;;7.37;92.67
41706;BME280;27385;51.096;17.190;2023-02-12T12:05:36;102332.73;;;7.40;93.09
41706;BME280;27385;51.096;17.190;2023-02-12T12:08:15;102332.77;;;7.46;92.10
41706;BME280;27385;51.096;17.190;2023-02-12T12:10:53;102334.50;;;7.49;90.79
41706;BME280;27385;51.096;17.190;2023-02-12T12:13:31;102332.73;;;7.49;90.36
41706;BME280;27385;51.096;17.190;2023-02-12T12:16:10;102325.98;;;7.52;90.03
41706;BME280;27385;51.096;17.190;2023-02-12T12:19:04;102325.60;;;7.59;89.80
41706;BME280;27385;51.096;17.190;2023-02-12T12:21:58;102329.38;;;7.64;88.23
41706;BME280;27385;51.096;17.190;2023-02-12T12:24:40;102331.13;;;7.64;88.08
41706;BME280;27385;51.096;17.190;2023-02-12T12:27:17;102331.61;;;7.64;87.17
41706;BME280;27385;51.096;17.190;2023-02-12T12:30:17;102328.27;;;7.63;85.80
41706;BME280;27385;51.096;17.190;2023-02-12T12:32:53;102323.28;;;7.62;86.91
41706;BME280;27385;51.096;17.190;2023-02-12T12:35:38;102324.38;;;7.64;87.23
41706;BME280;27385;51.096;17.190;2023-02-12T12:38:22;102329.92;;;7.67;86.07
41706;BME280;27385;51.096;17.190;2023-02-12T12:41:04;102323.02;;;7.67;86.53
41706;BME280;27385;51.096;17.190;2023-02-12T12:43:44;102318.00;;;7.68;86.29
41706;BME280;27385;51.096;17.190;2023-02-12T12:46:34;102312.90;;;7.69;87.19
41706;BME280;27385;51.096;17.190;2023-02-12T12:49:24;102300.73;;;7.70;87.91
41706;BME280;27385;51.096;17.190;2023-02-12T12:52:21;102303.27;;;7.72;85.86
41706;BME280;27385;51.096;17.190;2023-02-12T12:58:07;102301.67;;;7.79;85.19
41706;BME280;27385;51.096;17.190;2023-02-12T13:04:00;102298.88;;;7.93;85.15
41706;BME280;27385;51.096;17.190;2023-02-12T13:06:48;102298.76;;;7.97;85.52
41706;BME280;27385;51.096;17.190;2023-02-12T13:09:32;102299.85;;;7.99;85.37
41706;BME280;27385;51.096;17.190;2023-02-12T13:12:21;102302.71;;;7.98;85.79
41706;BME280;27385;51.096;17.190;2023-02-12T13:15:04;102308.06;;;7.97;84.97
41706;BME280;27385;51.096;17.190;2023-02-12T13:17:43;102313.01;;;7.94;84.28
41706;BME280;27385;51.096;17.190;2023-02-12T13:20:22;102308.44;;;7.90;83.78
41706;BME280;27385;51.096;17.190;2023-02-12T13:23:00;102311.33;;;7.86;84.17
41706;BME280;27385;51.096;17.190;2023-02-12T13:25:38;102308.64;;;7.86;84.15
41706;BME280;27385;51.096;17.190;2023-02-12T13:28:12;102310.88;;;7.84;84.39
41706;BME280;27385;51.096;17.190;2023-02-12T13:30:47;102316.99;;;7.83;83.62
41706;BME280;27385;51.096;17.190;2023-02-12T13:33:22;102321.40;;;7.80;83.14
41706;BME280;27385;51.096;17.190;2023-02-12T13:35:57;102318.57;;;7.76;82.53
41706;BME280;27385;51.096;17.190;2023-02-12T13:38:35;102313.99;;;7.73;82.41